createdAt,value
2022-09-27T00:00:17.003Z,14.98
2022-09-27T00:02:48.773Z,15.04
2022-09-27T00:05:19.497Z,14.99
2022-09-27T00:07:48.979Z,14.94
2022-09-27T00:10:17.643Z,14.98
2022-09-27T00:12:48.795Z,15.06
2022-09-27T00:15:17.014Z,15.02
2022-09-27T00:17:45.728Z,15.02
2022-09-27T00:20:17.433Z,15.05
2022-09-27T00:22:47.059Z,14.84
2022-09-27T00:25:17.190Z,14.83
2022-09-27T00:27:46.748Z,14.78
2022-09-27T00:30:16.482Z,14.89
2022-09-27T00:32:44.901Z,14.96
2022-09-27T00:35:15.212Z,14.80
2022-09-27T00:37:51.872Z,14.89
2022-09-27T00:40:24.384Z,14.85
2022-09-27T00:42:52.687Z,14.86
2022-09-27T00:45:22.123Z,14.78
2022-09-27T00:47:55.381Z,14.81
2022-09-27T00:50:28.493Z,14.67
2022-09-27T00:53:04.978Z,14.69
2022-09-27T00:55:37.130Z,14.60
2022-09-27T00:58:08.615Z,14.68
2022-09-27T01:00:40.329Z,14.74
2022-09-27T01:03:11.523Z,14.77
2022-09-27T01:05:41.838Z,14.78
2022-09-27T01:08:12.059Z,14.58
2022-09-27T01:10:47.575Z,14.50
2022-09-27T01:13:22.057Z,14.63
2022-09-27T01:15:56.862Z,14.57
2022-09-27T01:18:32.265Z,14.51
2022-09-27T01:21:27.116Z,14.51
2022-09-27T01:24:42.488Z,14.53
2022-09-27T01:27:41.479Z,14.49
2022-09-27T01:30:29.938Z,14.34
2022-09-27T01:33:25.783Z,14.37
2022-09-27T01:36:08.879Z,14.34
2022-09-27T01:38:46.992Z,14.36
2022-09-27T01:41:27.066Z,14.42
2022-09-27T01:44:26.299Z,14.37
2022-09-27T01:47:06.666Z,14.33
2022-09-27T01:49:49.965Z,14.42
2022-09-27T01:52:22.949Z,14.36
2022-09-27T01:55:10.850Z,14.37
2022-09-27T01:58:07.597Z,14.28
2022-09-27T02:00:38.513Z,14.23
2022-09-27T02:03:13.141Z,14.40
2022-09-27T02:05:45.700Z,14.14
2022-09-27T02:08:39.088Z,14.24
2022-09-27T02:11:16.562Z,14.30
2022-09-27T02:13:57.279Z,14.22
2022-09-27T02:16:57.782Z,14.21
2022-09-27T02:19:41.363Z,14.22
2022-09-27T02:22:16.537Z,14.02
2022-09-27T02:24:49.927Z,14.13
2022-09-27T02:27:23.562Z,14.20
2022-09-27T02:29:54.827Z,14.04
2022-09-27T02:32:23.787Z,14.20
2022-09-27T02:34:54.933Z,14.12
2022-09-27T02:37:24.515Z,14.16
2022-09-27T02:39:52.597Z,14.18
2022-09-27T02:42:24.369Z,14.14
2022-09-27T02:44:52.883Z,14.18
2022-09-27T02:47:33.821Z,14.22
2022-09-27T02:50:17.646Z,14.08
2022-09-27T02:52:58.022Z,13.84
2022-09-27T02:55:44.390Z,13.98
2022-09-27T02:58:43.078Z,13.90
2022-09-27T03:01:38.402Z,13.99
2022-09-27T03:04:18.687Z,14.09
2022-09-27T03:06:49.280Z,13.96
2022-09-27T03:09:21.471Z,14.17
2022-09-27T03:11:50.991Z,14.15
2022-09-27T03:14:19.813Z,14.07
2022-09-27T03:17:00.616Z,13.79
2022-09-27T03:19:48.419Z,13.88
2022-09-27T03:22:46.862Z,13.93
2022-09-27T03:25:16.416Z,13.82
2022-09-27T03:27:44.942Z,13.84
2022-09-27T03:30:14.654Z,13.94
2022-09-27T03:32:44.553Z,14.04
2022-09-27T03:35:18.833Z,13.95
2022-09-27T03:37:49.314Z,14.07
2022-09-27T03:40:17.644Z,13.97
2022-09-27T03:42:49.953Z,14.01
2022-09-27T03:45:18.955Z,14.00
2022-09-27T03:47:49.176Z,13.93
2022-09-27T03:50:17.506Z,14.11
2022-09-27T03:52:46.737Z,14.03
2022-09-27T03:55:16.369Z,14.19
2022-09-27T03:57:47.441Z,13.96
2022-09-27T04:00:19.098Z,14.20
2022-09-27T04:02:47.345Z,14.28
2022-09-27T04:05:35.610Z,14.28
2022-09-27T04:08:11.222Z,14.03
2022-09-27T04:10:41.042Z,14.08
2022-09-27T04:13:09.895Z,14.10
2022-09-27T04:15:48.657Z,14.19
2022-09-27T04:18:59.189Z,14.22
2022-09-27T04:21:48.573Z,14.22
2022-09-27T04:24:21.315Z,14.30
2022-09-27T04:27:02.907Z,14.15
2022-09-27T04:29:32.395Z,14.18
2022-09-27T04:32:08.085Z,13.96
2022-09-27T04:35:15.413Z,14.02
2022-09-27T04:37:45.368Z,14.07
2022-09-27T04:40:13.966Z,14.24
2022-09-27T04:42:44.382Z,14.24
2022-09-27T04:45:13.277Z,14.21
2022-09-27T04:47:44.274Z,14.33
2022-09-27T04:50:12.590Z,14.33
2022-09-27T04:52:45.132Z,14.36
2022-09-27T04:55:14.578Z,14.42
2022-09-27T04:57:44.221Z,14.36
2022-09-27T05:00:15.301Z,14.27
2022-09-27T05:02:45.002Z,14.29
2022-09-27T05:05:36.471Z,14.29
2022-09-27T05:08:05.190Z,14.19
2022-09-27T05:10:55.918Z,14.32
2022-09-27T05:13:26.500Z,14.32
2022-09-27T05:15:56.127Z,14.21
2022-09-27T05:18:59.193Z,14.21
2022-09-27T05:22:03.548Z,14.24
2022-09-27T05:24:33.859Z,14.06
2022-09-27T05:27:08.380Z,14.31
2022-09-27T05:29:38.415Z,14.26
2022-09-27T05:32:14.312Z,14.15
2022-09-27T05:34:43.280Z,14.34
2022-09-27T05:37:13.197Z,14.25
2022-09-27T05:39:43.009Z,14.34
2022-09-27T05:42:17.442Z,14.29
2022-09-27T05:44:47.774Z,14.12
2022-09-27T05:47:17.998Z,14.20
2022-09-27T05:49:46.164Z,14.27
2022-09-27T05:52:16.826Z,14.36
2022-09-27T05:54:46.501Z,14.30
2022-09-27T05:57:17.864Z,14.48
2022-09-27T05:59:50.343Z,14.51
2022-09-27T06:02:22.498Z,14.38
2022-09-27T06:05:11.216Z,14.44
2022-09-27T06:08:20.337Z,14.48
2022-09-27T06:11:03.225Z,14.20
2022-09-27T06:13:34.528Z,14.53
2022-09-27T06:16:05.164Z,14.69
2022-09-27T06:18:35.382Z,14.59
2022-09-27T06:21:05.678Z,14.68
2022-09-27T06:23:36.344Z,14.71
2022-09-27T06:26:28.106Z,14.67
2022-09-27T06:29:16.749Z,14.72
2022-09-27T06:32:06.473Z,14.71
2022-09-27T06:34:56.084Z,14.73
2022-09-27T06:37:27.069Z,14.77
2022-09-27T06:39:56.121Z,14.71
2022-09-27T06:42:43.777Z,14.63
2022-09-27T06:45:32.832Z,14.63
2022-09-27T06:48:26.471Z,14.64
2022-09-27T06:51:00.560Z,14.85
2022-09-27T06:53:32.866Z,14.80
2022-09-27T06:56:01.663Z,14.98
2022-09-27T06:58:54.624Z,14.93
2022-09-27T07:02:02.010Z,14.91
2022-09-27T07:04:31.794Z,14.84
2022-09-27T07:07:06.331Z,14.82
2022-09-27T07:09:39.219Z,14.52
2022-09-27T07:12:07.903Z,14.66
2022-09-27T07:14:36.161Z,14.76
2022-09-27T07:17:05.957Z,14.78
2022-09-27T07:19:41.978Z,14.77
2022-09-27T07:22:11.069Z,14.74
2022-09-27T07:24:41.904Z,14.76
2022-09-27T07:27:11.301Z,14.47
2022-09-27T07:29:40.156Z,14.57
2022-09-27T07:32:08.871Z,14.58
2022-09-27T07:34:39.029Z,14.65
2022-09-27T07:37:09.758Z,14.84
2022-09-27T07:39:40.717Z,14.85
2022-09-27T07:42:08.853Z,14.77
2022-09-27T07:44:42.344Z,14.67
2022-09-27T07:47:29.513Z,14.60
2022-09-27T07:50:06.509Z,14.33
2022-09-27T07:53:08.044Z,14.40
2022-09-27T07:55:38.316Z,14.53
2022-09-27T07:58:13.087Z,14.56
2022-09-27T08:00:42.094Z,14.67
2022-09-27T08:03:16.219Z,14.53
2022-09-27T08:05:47.885Z,14.37
2022-09-27T08:08:18.897Z,14.43
2022-09-27T08:10:49.174Z,14.46
2022-09-27T08:13:20.293Z,14.50
2022-09-27T08:15:52.660Z,14.50
2022-09-27T08:18:24.408Z,14.68
2022-09-27T08:20:57.832Z,14.60
2022-09-27T08:23:54.075Z,14.32
2022-09-27T08:26:33.416Z,14.53
2022-09-27T08:29:14.353Z,14.36
2022-09-27T08:31:51.946Z,14.16
2022-09-27T08:34:20.746Z,14.11
2022-09-27T08:36:49.018Z,14.05
2022-09-27T08:39:18.525Z,14.10
2022-09-27T08:41:55.960Z,13.98
2022-09-27T08:44:35.497Z,13.98
2022-09-27T08:47:25.939Z,13.88
2022-09-27T08:49:57.853Z,13.75
2022-09-27T08:52:28.987Z,13.84
2022-09-27T08:55:03.800Z,13.77
2022-09-27T08:57:31.953Z,13.69
2022-09-27T09:00:06.319Z,13.36
2022-09-27T09:02:36.681Z,13.33
2022-09-27T09:05:08.456Z,13.65
2022-09-27T09:07:47.743Z,13.67
2022-09-27T09:10:48.007Z,13.79
2022-09-27T09:13:27.802Z,13.60
2022-09-27T09:16:08.591Z,13.49
2022-09-27T09:18:58.015Z,13.87
2022-09-27T09:21:47.153Z,13.94
2022-09-27T09:24:36.886Z,13.83
2022-09-27T09:27:13.503Z,14.10
2022-09-27T09:29:58.048Z,13.82
2022-09-27T09:32:34.784Z,13.89
2022-09-27T09:35:05.237Z,14.08
2022-09-27T09:37:38.368Z,13.97
2022-09-27T09:40:17.072Z,13.77
2022-09-27T09:42:50.288Z,13.84
2022-09-27T09:45:24.126Z,13.90
2022-09-27T09:47:56.662Z,13.81
2022-09-27T09:50:28.908Z,13.78
2022-09-27T09:53:02.655Z,14.06
2022-09-27T09:55:34.716Z,13.73
2022-09-27T09:58:17.741Z,14.14
2022-09-27T10:00:52.487Z,14.17
2022-09-27T10:03:20.808Z,14.18
2022-09-27T10:05:49.229Z,14.15
2022-09-27T10:08:20.054Z,14.45
2022-09-27T10:10:52.930Z,14.26
2022-09-27T10:13:38.593Z,14.41
2022-09-27T10:16:09.688Z,14.51
2022-09-27T10:18:38.739Z,14.66
2022-09-27T10:21:11.908Z,14.68
2022-09-27T10:24:06.703Z,14.70
2022-09-27T10:27:13.279Z,14.79
2022-09-27T10:29:44.183Z,14.66
2022-09-27T10:32:22.948Z,14.78
2022-09-27T10:34:52.423Z,14.69
2022-09-27T10:37:23.233Z,15.11
2022-09-27T10:40:00.746Z,14.84
2022-09-27T10:42:34.845Z,15.11
2022-09-27T10:45:25.966Z,15.20
2022-09-27T10:48:20.440Z,15.07
2022-09-27T10:50:59.314Z,15.16
2022-09-27T10:53:39.203Z,15.21
2022-09-27T10:56:22.990Z,15.36
2022-09-27T10:58:52.138Z,15.20
2022-09-27T11:01:22.891Z,15.05
2022-09-27T11:04:06.492Z,15.18
2022-09-27T11:06:39.348Z,15.19
2022-09-27T11:09:26.445Z,15.02
2022-09-27T11:12:11.454Z,15.07
2022-09-27T11:14:39.736Z,15.29
2022-09-27T11:17:16.192Z,15.33
2022-09-27T11:20:18.838Z,15.33
2022-09-27T11:23:20.084Z,15.25
2022-09-27T11:26:09.011Z,15.33
2022-09-27T11:28:45.737Z,15.21
2022-09-27T11:31:32.023Z,15.42
2022-09-27T11:34:31.081Z,15.63
2022-09-27T11:37:09.341Z,15.26
2022-09-27T11:39:51.180Z,15.43
2022-09-27T11:42:34.706Z,15.16
2022-09-27T11:45:34.383Z,15.29
2022-09-27T11:48:18.020Z,15.26
2022-09-27T11:51:00.991Z,15.07
2022-09-27T11:53:42.270Z,15.28
2022-09-27T11:56:23.759Z,15.19
2022-09-27T11:59:02.122Z,15.36
2022-09-27T12:01:36.847Z,14.98
2022-09-27T12:04:38.442Z,15.14
2022-09-27T12:07:12.889Z,15.16
2022-09-27T12:09:44.629Z,15.28
2022-09-27T12:12:15.213Z,15.16
2022-09-27T12:14:47.359Z,15.13
2022-09-27T12:17:20.215Z,15.30
2022-09-27T12:19:52.672Z,15.10
2022-09-27T12:23:00.688Z,15.22
2022-09-27T12:25:54.368Z,14.99
2022-09-27T12:28:53.233Z,15.17
2022-09-27T12:31:30.335Z,15.26
2022-09-27T12:34:09.768Z,15.30
2022-09-27T12:36:43.977Z,15.21
2022-09-27T12:39:21.068Z,15.53
2022-09-27T12:42:02.328Z,15.42
2022-09-27T12:44:50.976Z,15.38
2022-09-27T12:47:36.344Z,15.40
2022-09-27T12:50:20.107Z,15.51
2022-09-27T12:52:54.426Z,15.58
2022-09-27T12:55:50.869Z,15.37
2022-09-27T12:58:42.104Z,15.35
2022-09-27T13:01:21.342Z,15.41
2022-09-27T13:04:37.234Z,15.47
